createdAt,value
2019-02-16T00:00:46.048Z,25.00
2019-02-16T00:03:19.178Z,25.07
2019-02-16T00:05:50.694Z,25.37
2019-02-16T00:08:22.221Z,25.33
2019-02-16T00:10:53.754Z,24.37
2019-02-16T00:13:25.360Z,21.07
2019-02-16T00:15:56.879Z,22.47
2019-02-16T00:18:28.480Z,23.33
2019-02-16T00:21:03.941Z,24.43
2019-02-16T00:23:33.315Z,29.93
2019-02-16T00:26:04.930Z,23.57
2019-02-16T00:28:36.443Z,22.80
2019-02-16T00:31:07.971Z,22.07
2019-02-16T00:33:39.493Z,22.70
2019-02-16T00:36:11.085Z,22.63
2019-02-16T00:38:42.657Z,22.03
2019-02-16T00:41:15.281Z,25.03
2019-02-16T00:43:46.835Z,25.07
2019-02-16T00:46:18.507Z,23.00
2019-02-16T00:48:50.054Z,20.80
2019-02-16T00:51:21.634Z,22.83
2019-02-16T00:53:53.246Z,25.20
2019-02-16T00:56:24.775Z,22.77
2019-02-16T00:58:56.406Z,22.07
2019-02-16T01:01:28.078Z,23.70
2019-02-16T01:03:59.601Z,26.40
2019-02-16T01:06:31.149Z,23.97
2019-02-16T01:09:02.688Z,21.97
2019-02-16T01:11:35.370Z,20.57
2019-02-16T01:14:06.976Z,25.20
2019-02-16T01:16:38.565Z,21.40
2019-02-16T01:19:10.113Z,22.37
2019-02-16T01:21:41.840Z,21.13
2019-02-16T01:24:13.399Z,25.23
2019-02-16T01:26:45.075Z,20.80
2019-02-16T01:29:16.604Z,20.37
2019-02-16T01:31:48.136Z,20.70
2019-02-16T01:34:19.663Z,22.77
2019-02-16T01:36:51.205Z,19.77
2019-02-16T01:39:22.793Z,19.13
2019-02-16T01:41:54.323Z,19.03
2019-02-16T01:44:25.855Z,15.70
2019-02-16T01:46:57.481Z,14.97
2019-02-16T01:49:29.004Z,14.77
2019-02-16T01:52:00.556Z,14.80
2019-02-16T01:54:32.283Z,14.77
2019-02-16T01:57:03.875Z,14.03
2019-02-16T01:59:35.500Z,12.20
2019-02-16T02:02:07.030Z,12.50
2019-02-16T02:04:38.550Z,12.43
2019-02-16T02:07:10.100Z,11.83
2019-02-16T02:09:41.651Z,13.97
2019-02-16T02:12:13.253Z,10.67
2019-02-16T02:14:44.761Z,11.73
2019-02-16T02:17:16.349Z,13.63
2019-02-16T02:19:48.049Z,11.67
2019-02-16T02:22:19.661Z,12.20
2019-02-16T02:24:51.271Z,14.50
2019-02-16T02:27:22.894Z,12.73
2019-02-16T02:29:54.586Z,18.27
2019-02-16T02:32:26.118Z,12.63
2019-02-16T02:34:57.660Z,14.07
2019-02-16T02:37:29.179Z,13.17
2019-02-16T02:40:00.778Z,14.17
2019-02-16T02:42:32.310Z,15.63
2019-02-16T02:45:04.756Z,15.87
2019-02-16T02:47:36.782Z,15.37
2019-02-16T02:50:08.666Z,12.70
2019-02-16T02:52:40.156Z,12.17
2019-02-16T02:55:11.739Z,15.50
2019-02-16T02:57:43.348Z,12.50
2019-02-16T03:00:14.876Z,11.33
2019-02-16T03:02:46.425Z,13.93
2019-02-16T03:05:17.954Z,14.07
2019-02-16T03:07:49.745Z,13.57
2019-02-16T03:10:21.373Z,11.93
2019-02-16T03:12:52.962Z,14.27
2019-02-16T03:15:24.624Z,9.83
2019-02-16T03:17:56.256Z,13.03
2019-02-16T03:20:27.884Z,13.17
2019-02-16T03:23:20.171Z,13.33
2019-02-16T03:26:12.094Z,10.47
2019-02-16T03:28:57.707Z,13.90
2019-02-16T03:31:39.874Z,11.73
2019-02-16T03:34:34.226Z,13.97
2019-02-16T03:37:34.005Z,12.13
2019-02-16T03:40:09.621Z,13.67
2019-02-16T03:42:41.244Z,11.40
2019-02-16T03:45:12.755Z,11.83
2019-02-16T03:47:44.371Z,13.50
2019-02-16T03:50:15.913Z,11.93
2019-02-16T03:52:47.741Z,12.17
2019-02-16T03:55:19.273Z,13.30
2019-02-16T03:57:50.863Z,12.33
2019-02-16T04:00:22.442Z,10.80
2019-02-16T04:02:54.055Z,13.00
2019-02-16T04:05:25.653Z,10.57
2019-02-16T04:07:57.194Z,12.23
2019-02-16T04:10:28.798Z,8.87
2019-02-16T04:13:00.372Z,14.97
2019-02-16T04:15:31.985Z,11.97
2019-02-16T04:18:03.490Z,9.13
2019-02-16T04:20:35.029Z,12.77
2019-02-16T04:23:07.632Z,13.47
2019-02-16T04:25:39.168Z,13.17
2019-02-16T04:28:10.707Z,11.60
2019-02-16T04:30:42.288Z,11.43
2019-02-16T04:33:13.933Z,14.67
2019-02-16T04:35:45.524Z,12.60
2019-02-16T04:38:17.129Z,14.33
2019-02-16T04:40:48.706Z,12.57
2019-02-16T04:43:20.299Z,13.77
2019-02-16T04:45:51.901Z,12.60
2019-02-16T04:48:23.499Z,14.77
2019-02-16T04:50:55.026Z,15.27
2019-02-16T04:53:26.564Z,17.83
2019-02-16T04:55:58.166Z,15.40
2019-02-16T04:58:30.189Z,15.10
2019-02-16T05:01:01.944Z,14.83
2019-02-16T05:03:33.471Z,14.50
2019-02-16T05:06:05.020Z,14.07
2019-02-16T05:08:36.559Z,12.20
2019-02-16T05:11:09.168Z,14.30
2019-02-16T05:13:40.766Z,15.17
2019-02-16T05:16:12.376Z,14.87
2019-02-16T05:18:43.933Z,15.23
2019-02-16T05:21:15.528Z,13.57
2019-02-16T05:23:47.190Z,16.23
2019-02-16T05:26:18.788Z,16.97
2019-02-16T05:28:50.311Z,15.53
2019-02-16T05:31:21.989Z,18.40
2019-02-16T05:33:53.530Z,17.50
2019-02-16T05:36:25.159Z,16.93
2019-02-16T05:38:56.690Z,17.53
2019-02-16T05:41:28.225Z,17.67
2019-02-16T05:43:59.868Z,17.77
2019-02-16T05:46:31.427Z,17.83
2019-02-16T05:49:02.941Z,17.50
2019-02-16T05:51:34.543Z,18.40
2019-02-16T05:54:06.211Z,18.70
2019-02-16T05:56:37.798Z,17.83
2019-02-16T05:59:09.330Z,17.93
2019-02-16T06:01:40.934Z,20.97
2019-02-16T06:04:12.433Z,19.87
2019-02-16T06:06:43.955Z,20.13
2019-02-16T06:09:15.492Z,18.73
2019-02-16T06:11:47.068Z,18.60
2019-02-16T06:14:20.064Z,21.47
2019-02-16T06:16:51.597Z,20.37
2019-02-16T06:19:23.135Z,20.27
2019-02-16T06:21:55.734Z,18.83
2019-02-16T06:24:27.333Z,22.47
2019-02-16T06:26:59.459Z,19.90
2019-02-16T06:29:30.988Z,20.30
2019-02-16T06:32:02.576Z,21.50
2019-02-16T06:34:34.183Z,20.53
2019-02-16T06:37:07.372Z,18.97
2019-02-16T06:39:39.006Z,22.07
2019-02-16T06:42:11.061Z,19.67
2019-02-16T06:44:42.598Z,21.23
2019-02-16T06:47:14.319Z,22.47
2019-02-16T06:49:45.969Z,27.53
2019-02-16T06:52:17.591Z,27.67
2019-02-16T06:54:49.098Z,29.47
2019-02-16T06:57:25.075Z,42.13
2019-02-16T06:59:56.679Z,28.47
2019-02-16T07:02:29.656Z,30.37
2019-02-16T07:05:01.282Z,26.10
2019-02-16T07:07:32.892Z,25.80
2019-02-16T07:10:08.495Z,22.97
2019-02-16T07:12:40.028Z,26.13
2019-02-16T07:15:12.682Z,28.03
2019-02-16T07:17:45.933Z,20.77
2019-02-16T07:20:19.108Z,31.63
2019-02-16T07:22:50.644Z,23.70
2019-02-16T07:25:22.172Z,34.07
2019-02-16T07:27:53.715Z,26.37
2019-02-16T07:30:25.327Z,30.07
2019-02-16T07:32:56.911Z,22.80
2019-02-16T07:35:28.518Z,35.50
2019-02-16T07:38:00.026Z,27.57
2019-02-16T07:40:31.706Z,29.77
2019-02-16T07:43:03.373Z,31.13
2019-02-16T07:45:34.663Z,46.33
2019-02-16T07:48:19.796Z,31.37
2019-02-16T07:50:52.955Z,28.77
2019-02-16T07:53:31.335Z,28.23
2019-02-16T07:56:03.097Z,27.80
2019-02-16T07:58:52.468Z,28.77
2019-02-16T08:01:31.491Z,30.50
2019-02-16T08:04:07.477Z,28.40
2019-02-16T08:06:43.777Z,28.30
2019-02-16T08:09:29.167Z,36.80
2019-02-16T08:12:05.285Z,31.30
2019-02-16T08:14:38.466Z,34.63
2019-02-16T08:17:27.796Z,33.53
2019-02-16T08:20:01.050Z,36.90
2019-02-16T08:22:49.262Z,32.37
2019-02-16T08:25:28.236Z,34.83
2019-02-16T08:28:08.279Z,41.30
2019-02-16T08:30:44.742Z,35.60
2019-02-16T08:33:22.493Z,34.03
2019-02-16T08:35:56.561Z,42.00
2019-02-16T08:38:42.092Z,46.20
2019-02-16T08:41:21.181Z,32.53
2019-02-16T08:44:00.203Z,30.80
2019-02-16T08:46:48.774Z,33.70
2019-02-16T08:49:22.711Z,28.23
2019-02-16T08:51:55.928Z,26.13
2019-02-16T08:54:29.108Z,27.07
2019-02-16T08:57:08.463Z,31.57
2019-02-16T08:59:41.667Z,25.23
2019-02-16T09:02:30.006Z,25.37
2019-02-16T09:05:05.985Z,25.13
2019-02-16T09:07:44.907Z,31.67
2019-02-16T09:10:30.368Z,24.93
2019-02-16T09:13:03.680Z,24.53
2019-02-16T09:15:42.764Z,25.07
2019-02-16T09:18:15.939Z,20.33
2019-02-16T09:20:49.189Z,23.20
2019-02-16T09:23:31.420Z,24.20
2019-02-16T09:26:07.292Z,25.07
2019-02-16T09:28:47.819Z,26.40
2019-02-16T09:31:21.874Z,26.07
2019-02-16T09:33:55.988Z,22.57
2019-02-16T09:36:35.144Z,24.13
2019-02-16T09:39:11.404Z,22.07
2019-02-16T09:41:50.586Z,21.13
2019-02-16T09:44:24.316Z,33.03
2019-02-16T09:46:55.621Z,26.30
2019-02-16T09:49:28.897Z,20.87
2019-02-16T09:52:08.341Z,21.37
2019-02-16T09:54:41.571Z,26.20
2019-02-16T09:57:14.763Z,23.20
2019-02-16T09:59:50.634Z,23.10
2019-02-16T10:02:42.141Z,23.53
2019-02-16T10:05:31.346Z,23.50
2019-02-16T10:08:08.070Z,31.03
2019-02-16T10:10:47.249Z,25.50
2019-02-16T10:13:36.649Z,27.73
2019-02-16T10:16:25.958Z,23.27
2019-02-16T10:19:04.871Z,27.20
2019-02-16T10:21:38.049Z,26.73
2019-02-16T10:24:18.212Z,27.27
2019-02-16T10:27:07.997Z,31.33
2019-02-16T10:29:56.189Z,22.50
2019-02-16T10:32:45.497Z,23.07
2019-02-16T10:35:24.766Z,22.20
2019-02-16T10:37:56.383Z,22.80
2019-02-16T10:40:48.204Z,26.23
2019-02-16T10:43:37.763Z,25.43
2019-02-16T10:46:15.043Z,29.00
2019-02-16T10:48:51.447Z,22.67
2019-02-16T10:51:24.686Z,23.73
2019-02-16T10:53:57.937Z,28.23
2019-02-16T10:56:31.240Z,25.83
2019-02-16T10:59:21.484Z,31.43
2019-02-16T11:01:55.554Z,35.33
2019-02-16T11:04:37.650Z,28.57
2019-02-16T11:07:19.947Z,22.53
2019-02-16T11:10:02.309Z,24.43
2019-02-16T11:12:38.331Z,26.23
2019-02-16T11:15:26.379Z,26.87
2019-02-16T11:18:18.011Z,27.13
2019-02-16T11:20:49.741Z,27.45
2019-02-16T11:23:39.335Z,27.90
2019-02-16T11:26:15.739Z,22.42
2019-02-16T11:28:51.866Z,25.15
2019-02-16T11:31:25.369Z,22.32
2019-02-16T11:34:01.590Z,20.90
2019-02-16T11:36:34.872Z,22.22
2019-02-16T11:39:14.295Z,25.17
2019-02-16T11:41:56.292Z,21.75
2019-02-16T11:44:45.998Z,22.80
2019-02-16T11:47:19.223Z,26.05
2019-02-16T11:49:58.433Z,23.92
2019-02-16T11:52:47.935Z,19.73
2019-02-16T11:55:26.856Z,16.75
2019-02-16T11:58:02.909Z,20.30
2019-02-16T12:00:40.556Z,20.43
2019-02-16T12:03:31.986Z,17.57
2019-02-16T12:06:11.141Z,16.42
2019-02-16T12:08:44.326Z,19.00
2019-02-16T12:11:26.624Z,16.60
2019-02-16T12:14:07.358Z,18.52
2019-02-16T12:16:46.332Z,18.73
2019-02-16T12:19:23.368Z,17.25
2019-02-16T12:21:56.548Z,19.65
2019-02-16T12:24:38.594Z,16.12
2019-02-16T12:27:10.055Z,15.38
2019-02-16T12:29:48.130Z,14.38
2019-02-16T12:32:21.585Z,14.03
2019-02-16T12:34:54.750Z,14.18
2019-02-16T12:37:28.349Z,15.72
2019-02-16T12:39:59.656Z,16.82
2019-02-16T12:42:30.957Z,14.05
2019-02-16T12:45:21.362Z,17.55
2019-02-16T12:48:12.483Z,18.75
2019-02-16T12:50:48.627Z,19.65
2019-02-16T12:53:25.518Z,16.10
2019-02-16T12:55:59.709Z,16.60
2019-02-16T12:58:35.976Z,16.12
2019-02-16T13:01:14.737Z,12.07
2019-02-16T13:03:47.969Z,11.25
2019-02-16T13:06:24.055Z,10.28
2019-02-16T13:09:03.131Z,10.98
2019-02-16T13:11:50.830Z,9.68
2019-02-16T13:14:36.216Z,10.30
2019-02-16T13:17:10.447Z,12.35
2019-02-16T13:19:43.711Z,12.43
2019-02-16T13:22:19.726Z,10.72
2019-02-16T13:24:52.910Z,9.40
2019-02-16T13:27:35.112Z,10.35
2019-02-16T13:30:15.880Z,11.88
2019-02-16T13:32:49.146Z,12.58
2019-02-16T13:35:25.075Z,10.58
2019-02-16T13:38:08.351Z,10.88
2019-02-16T13:40:41.658Z,10.58
2019-02-16T13:43:22.858Z,10.53
2019-02-16T13:46:04.947Z,7.85
2019-02-16T13:48:40.836Z,14.45
2019-02-16T13:51:32.094Z,13.32
2019-02-16T13:54:13.942Z,13.08
2019-02-16T13:56:45.244Z,9.98
2019-02-16T13:59:18.574Z,9.05
2019-02-16T14:02:03.770Z,12.43
2019-02-16T14:04:36.961Z,12.63
2019-02-16T14:07:16.330Z,10.90
2019-02-16T14:10:05.950Z,13.68
2019-02-16T14:12:42.176Z,9.93
2019-02-16T14:15:18.171Z,10.05
2019-02-16T14:17:51.601Z,11.15
2019-02-16T14:20:23.116Z,9.53
2019-02-16T14:22:54.739Z,12.93
2019-02-16T14:25:31.182Z,10.95
2019-02-16T14:28:02.873Z,11.38
2019-02-16T14:30:35.060Z,13.43
2019-02-16T14:33:06.660Z,11.85
2019-02-16T14:35:39.273Z,10.45
2019-02-16T14:38:21.758Z,11.18
2019-02-16T14:40:54.168Z,11.40
2019-02-16T14:43:25.988Z,15.32
2019-02-16T14:45:57.598Z,13.98
2019-02-16T14:48:29.168Z,13.75
2019-02-16T14:51:01.522Z,13.50
2019-02-16T14:53:33.647Z,12.93
2019-02-16T14:56:05.390Z,15.10
2019-02-16T14:58:37.239Z,11.38
2019-02-16T15:01:08.866Z,12.40
2019-02-16T15:03:40.488Z,13.55
2019-02-16T15:06:12.025Z,13.18
2019-02-16T15:08:43.637Z,16.07
2019-02-16T15:11:15.322Z,15.18
2019-02-16T15:13:46.878Z,14.83
2019-02-16T15:16:18.528Z,14.38
2019-02-16T15:18:50.144Z,15.00
2019-02-16T15:21:21.942Z,16.87
2019-02-16T15:23:53.559Z,13.80
2019-02-16T15:26:28.704Z,15.20
2019-02-16T15:28:58.536Z,16.73
2019-02-16T15:31:30.091Z,15.95
2019-02-16T15:34:01.788Z,17.65
2019-02-16T15:36:33.298Z,14.60
2019-02-16T15:39:07.541Z,16.17
2019-02-16T15:41:40.710Z,16.45
2019-02-16T15:44:12.469Z,17.62
2019-02-16T15:46:44.007Z,16.93
2019-02-16T15:49:15.603Z,18.35
2019-02-16T15:51:47.154Z,18.62
2019-02-16T15:54:18.700Z,17.45
2019-02-16T15:56:51.022Z,17.75
2019-02-16T15:59:22.831Z,18.17
2019-02-16T16:01:54.492Z,18.52
2019-02-16T16:04:26.106Z,19.25
2019-02-16T16:06:57.796Z,18.95
2019-02-16T16:09:46.154Z,19.70
2019-02-16T16:12:28.425Z,18.40
2019-02-16T16:15:01.893Z,20.17
2019-02-16T16:17:51.506Z,21.25
2019-02-16T16:20:41.094Z,20.52
2019-02-16T16:23:30.489Z,20.57
2019-02-16T16:26:05.669Z,22.17
2019-02-16T16:28:42.489Z,23.70
2019-02-16T16:31:15.854Z,26.40
2019-02-16T16:34:01.572Z,30.82
2019-02-16T16:36:32.909Z,29.77
2019-02-16T16:39:06.551Z,25.90
2019-02-16T16:41:48.927Z,27.07
2019-02-16T16:44:40.649Z,27.48
2019-02-16T16:47:29.871Z,25.02
2019-02-16T16:50:18.588Z,22.93
2019-02-16T16:53:03.135Z,21.73
2019-02-16T16:55:36.380Z,21.65
2019-02-16T16:58:17.026Z,24.10
2019-02-16T17:01:06.252Z,23.02
2019-02-16T17:03:39.442Z,22.93
2019-02-16T17:06:25.892Z,24.15
2019-02-16T17:09:15.817Z,24.55
2019-02-16T17:11:51.799Z,27.32
2019-02-16T17:14:25.108Z,25.12
2019-02-16T17:17:23.293Z,25.90
2019-02-16T17:20:00.701Z,27.15
2019-02-16T17:22:32.100Z,27.48
2019-02-16T17:25:04.727Z,25.90
2019-02-16T17:27:54.282Z,28.12
2019-02-16T17:30:34.928Z,28.70
2019-02-16T17:33:08.503Z,27.25
2019-02-16T17:35:47.578Z,28.38
2019-02-16T17:38:36.047Z,29.57
2019-02-16T17:41:12.057Z,26.75
2019-02-16T17:43:47.783Z,27.13
2019-02-16T17:46:37.456Z,28.05
2019-02-16T17:49:25.787Z,35.25
2019-02-16T17:52:02.109Z,34.80
2019-02-16T17:54:39.918Z,36.17
2019-02-16T17:57:19.680Z,37.23
2019-02-16T17:59:53.596Z,36.93
2019-02-16T18:02:35.848Z,35.98
2019-02-16T18:05:10.402Z,37.87
2019-02-16T18:07:48.794Z,37.90
2019-02-16T18:10:27.318Z,37.57
2019-02-16T18:13:01.429Z,41.48
2019-02-16T18:15:38.096Z,36.90
2019-02-16T18:18:14.668Z,37.43
2019-02-16T18:20:50.678Z,33.50
2019-02-16T18:23:36.094Z,38.13
2019-02-16T18:26:07.392Z,38.53
2019-02-16T18:28:57.626Z,37.60
2019-02-16T18:31:47.204Z,46.63
2019-02-16T18:34:23.382Z,43.37
2019-02-16T18:37:00.628Z,33.10
2019-02-16T18:39:33.959Z,42.57
2019-02-16T18:42:23.556Z,47.67
2019-02-16T18:44:59.540Z,42.67
2019-02-16T18:47:32.752Z,45.37
2019-02-16T18:50:24.006Z,46.00
2019-02-16T18:52:58.406Z,48.37
2019-02-16T18:55:37.755Z,49.50
2019-02-16T18:58:13.881Z,45.63
2019-02-16T19:01:04.965Z,46.13
2019-02-16T19:03:40.985Z,42.77
2019-02-16T19:06:16.788Z,46.97
2019-02-16T19:08:49.955Z,44.40
2019-02-16T19:11:39.515Z,44.43
2019-02-16T19:14:27.822Z,44.43
2019-02-16T19:17:06.743Z,43.30
2019-02-16T19:19:39.913Z,40.10
2019-02-16T19:22:18.935Z,48.00
2019-02-16T19:24:54.842Z,56.80
2019-02-16T19:27:30.542Z,51.47
2019-02-16T19:30:19.811Z,45.47
2019-02-16T19:33:09.134Z,42.10
2019-02-16T19:35:59.299Z,49.07
2019-02-16T19:38:38.299Z,38.13
2019-02-16T19:41:20.390Z,38.53
2019-02-16T19:44:09.697Z,36.17
2019-02-16T19:46:50.259Z,34.20
2019-02-16T19:49:24.496Z,33.63
2019-02-16T19:52:09.707Z,46.13
2019-02-16T19:54:46.030Z,46.13
2019-02-16T19:57:26.715Z,39.60
2019-02-16T20:00:02.480Z,42.23
2019-02-16T20:02:36.271Z,43.27
2019-02-16T20:05:26.208Z,33.83
2019-02-16T20:08:01.492Z,36.77
2019-02-16T20:10:34.826Z,41.27
2019-02-16T20:13:08.007Z,34.13
2019-02-16T20:15:53.497Z,37.20
2019-02-16T20:18:32.707Z,34.27
2019-02-16T20:21:22.762Z,32.10
2019-02-16T20:24:11.362Z,37.17
2019-02-16T20:26:50.332Z,34.67
2019-02-16T20:29:35.919Z,37.30
2019-02-16T20:32:26.381Z,38.97
2019-02-16T20:35:20.841Z,25.20
2019-02-16T20:37:58.167Z,33.20
2019-02-16T20:40:31.461Z,33.53
2019-02-16T20:43:10.743Z,36.53
2019-02-16T20:45:49.892Z,38.40
2019-02-16T20:48:25.731Z,47.87
2019-02-16T20:51:07.616Z,45.37
2019-02-16T20:53:43.510Z,46.43
2019-02-16T20:56:19.167Z,43.27
2019-02-16T20:59:04.653Z,40.27
2019-02-16T21:01:46.669Z,42.00
2019-02-16T21:04:34.892Z,29.53
2019-02-16T21:07:09.736Z,25.23
2019-02-16T21:09:59.293Z,36.83
2019-02-16T21:12:49.239Z,34.77
2019-02-16T21:15:34.730Z,35.90
2019-02-16T21:18:24.059Z,25.80
2019-02-16T21:20:55.458Z,37.43
2019-02-16T21:23:44.876Z,40.03
2019-02-16T21:26:16.147Z,34.40
2019-02-16T21:29:05.402Z,24.87
2019-02-16T21:31:54.631Z,32.93
2019-02-16T21:34:30.784Z,35.37
2019-02-16T21:37:03.957Z,39.03
2019-02-16T21:39:39.877Z,32.30
2019-02-16T21:42:19.264Z,35.93
2019-02-16T21:44:52.423Z,33.57
2019-02-16T21:47:25.615Z,34.00
2019-02-16T21:49:59.758Z,37.13
2019-02-16T21:52:35.639Z,37.47
2019-02-16T21:55:09.215Z,33.10
2019-02-16T21:57:45.051Z,35.63
2019-02-16T22:00:28.381Z,32.03
2019-02-16T22:03:01.528Z,37.20
2019-02-16T22:05:46.654Z,36.50
2019-02-16T22:08:17.916Z,31.17
2019-02-16T22:11:00.232Z,32.50
2019-02-16T22:13:31.819Z,33.73
2019-02-16T22:16:04.476Z,32.67
2019-02-16T22:18:36.014Z,37.93
2019-02-16T22:21:08.522Z,37.53
2019-02-16T22:23:40.041Z,26.67
2019-02-16T22:26:11.644Z,42.93
2019-02-16T22:28:43.161Z,34.57
2019-02-16T22:31:14.757Z,36.20
2019-02-16T22:33:46.388Z,35.80
2019-02-16T22:36:17.888Z,35.63
2019-02-16T22:38:49.415Z,35.53
2019-02-16T22:41:20.909Z,33.83
2019-02-16T22:43:52.412Z,29.93
2019-02-16T22:46:23.989Z,37.30
2019-02-16T22:48:55.529Z,34.67
2019-02-16T22:51:27.096Z,30.57
2019-02-16T22:53:58.584Z,33.80
2019-02-16T22:56:30.183Z,36.73
2019-02-16T22:59:01.762Z,35.30
2019-02-16T23:01:33.262Z,34.30
2019-02-16T23:04:04.805Z,32.03
2019-02-16T23:06:36.389Z,33.80
2019-02-16T23:09:10.459Z,32.73
2019-02-16T23:11:42.058Z,32.73
2019-02-16T23:14:13.625Z,34.90
2019-02-16T23:16:45.212Z,33.20
2019-02-16T23:19:16.783Z,32.60
2019-02-16T23:21:48.340Z,34.27
2019-02-16T23:24:19.892Z,25.93
2019-02-16T23:26:51.487Z,32.37
2019-02-16T23:29:35.808Z,30.93
2019-02-16T23:32:07.334Z,30.83
2019-02-16T23:34:38.940Z,34.33
2019-02-16T23:37:10.539Z,36.70
2019-02-16T23:39:42.088Z,34.60
2019-02-16T23:42:13.616Z,33.30
2019-02-16T23:44:45.205Z,31.97
2019-02-16T23:47:16.801Z,36.30
2019-02-16T23:49:48.349Z,31.40
2019-02-16T23:52:19.876Z,30.73
2019-02-16T23:54:51.403Z,27.80
2019-02-16T23:57:22.963Z,32.40
2019-02-16T23:59:54.538Z,25.87
